This is the latest recevied weather packets stored in our database for station/object BMCB-21. If no packets are shown the sender has not sent any weather packets the latest 10 day(s).
| Time | Temp. | Humidity | Pressure | Rain* | Wind** | Luminosity | Snow |
|---|---|---|---|---|---|---|---|
| 1777518620 | 6.67° C | 59% | 1024.3 hPa | 0 mm | - | 0 W/m² | - |
| 1777515020 | 7.78° C | 56% | 1024.1 hPa | 0 mm | - | 0 W/m² | - |
| 1777514442 | 7.78° C | 56% | 1024.1 hPa | 0 mm | - | 0 W/m² | - |
| 1777512646 | 8.33° C | 55% | 1024.1 hPa | 0 mm | - | 0 W/m² | - |
| 1777510843 | 9.44° C | 51% | 1023.9 hPa | 0 mm | - | 0 W/m² | - |
| 1777507841 | 8.89° C | 54% | 1024 hPa | 0 mm | - | 0 W/m² | - |
| 1777507244 | 8.89° C | 55% | 1024 hPa | 0 mm | - | 0 W/m² | - |
| 1777505447 | 10° C | 52% | 1023.9 hPa | 0 mm | - | 0 W/m² | - |
| 1777498248 | 12.22° C | 43% | 1023.2 hPa | 0 mm | - | 0 W/m² | - |
| 1777494648 | 14.44° C | 37% | 1022.8 hPa | 0 mm | - | 0 W/m² | - |
| 1777484446 | 18.33° C | 30% | 1020.9 hPa | 0 mm | - | 41 W/m² | - |
| 1777483848 | 18.89° C | 30% | 1020.8 hPa | 0 mm | - | 27 W/m² | - |
| 1777481446 | 19.44° C | 29% | 1020.9 hPa | 0 mm | - | 146 W/m² | - |
| 1777477211 | 20° C | 30% | 1020.8 hPa | 0 mm | - | 309 W/m² | - |
| 1777475411 | 20° C | 29% | 1021 hPa | 0 mm | - | 364 W/m² | - |
| 1777474210 | 20° C | 30% | 1021 hPa | 0 mm | - | 398 W/m² | - |
| 1777471214 | 20° C | 31% | 1021.1 hPa | 0 mm | - | 476 W/m² | - |
| 1777469410 | 19.44° C | 33% | 1021.3 hPa | 0 mm | - | 510 W/m² | - |
| 1777468813 | 19.44° C | 34% | 1021.4 hPa | 0 mm | - | 520 W/m² | - |
| 1777467611 | 19.44° C | 35% | 1021.3 hPa | 0 mm | - | 541 W/m² | - |
| 1777466412 | 19.44° C | 37% | 1021.5 hPa | 0 mm | - | 551 W/m² | - |
| 1777460411 | 17.78° C | 40% | 1021.9 hPa | 0 mm | - | 571 W/m² | - |
| 1777454412 | 15° C | 45% | 1022 hPa | 0 mm | - | 483 W/m² | - |
| 1777452012 | 13.89° C | 48% | 1022.1 hPa | 0 mm | - | 422 W/m² | - |
| 1777450812 | 12.78° C | 49% | 1022.1 hPa | 0 mm | - | 391 W/m² | - |
* Rain latest hour (hover to see other rain measurements)
** Current wind speed in m/s (hover to see current wind gust speed)